Time;durP1;ratioP1;P1;durP2;ratioP2;P2;SDS_P1;SDS_P2;PMS_P1;PMS_P2;Temp;Humidity;BMP_temperature;BMP_pressure;BME280_temperature;BME280_humidity;BME280_pressure;Samples;Min_cycle;Max_cycle;Signal;HPM_P1;HPM_P2
2022/01/14 00:00:44;;;;;;;;;;;24.20;47.10;;;;;;1619241;73;783;-70
2022/01/14 00:02:45;;;;;;;;;;;24.20;47.00;;;;;;1619388;73;686;-69
2022/01/14 00:04:47;;;;;;;;;;;24.20;47.00;;;;;;1621861;73;693;-69
2022/01/14 00:06:49;;;;;;;;;;;24.20;47.10;;;;;;1618736;73;1142;-70
2022/01/14 00:08:54;;;;;;;;;;;24.10;47.10;;;;;;1617836;73;1935;-70
2022/01/14 00:10:57;;;;;;;;;;;24.20;47.10;;;;;;1613585;73;1592;-68
2022/01/14 00:13:07;;;;;;;;;;;24.10;47.10;;;;;;1621109;73;1723;-69
2022/01/14 00:15:23;;;;;;;;;;;24.20;47.10;;;;;;1619802;73;1532;-69
2022/01/14 00:17:07;;;;;;;;;;;24.20;47.10;;;;;;1616323;73;1429;-70
2022/01/14 00:19:08;;;;;;;;;;;24.20;47.10;;;;;;1617840;73;761;-67
2022/01/14 00:21:10;;;;;;;;;;;24.20;47.10;;;;;;1619593;73;727;-68
2022/01/14 00:23:12;;;;;;;;;;;24.20;47.10;;;;;;1621285;73;877;-69
2022/01/14 00:32:43;;;;;;;;;;;24.20;47.10;;;;;;1619357;73;1654;-68
2022/01/14 00:34:31;;;;;;;;;;;24.10;47.10;;;;;;1610871;73;1573;-68
2022/01/14 00:36:33;;;;;;;;;;;24.10;47.20;;;;;;1626462;73;1193;-70
2022/01/14 00:38:35;;;;;;;;;;;24.10;47.10;;;;;;1629094;73;778;-71
2022/01/14 00:40:37;;;;;;;;;;;24.20;47.10;;;;;;1620088;73;789;-68
2022/01/14 00:42:39;;;;;;;;;;;24.20;47.10;;;;;;1619330;73;800;-67
2022/01/14 00:44:41;;;;;;;;;;;24.20;47.10;;;;;;1616909;73;747;-68
2022/01/14 00:46:44;;;;;;;;;;;24.10;47.10;;;;;;1618247;73;1162;-67
2022/01/14 00:48:45;;;;;;;;;;;24.20;47.00;;;;;;1612024;73;1932;-69
2022/01/14 00:50:47;;;;;;;;;;;24.10;47.00;;;;;;1614941;73;717;-68
2022/01/14 00:52:50;;;;;;;;;;;24.20;47.00;;;;;;1613159;73;705;-67
2022/01/14 00:54:52;;;;;;;;;;;24.20;47.00;;;;;;1619658;73;732;-68
2022/01/14 00:59:16;;;;;;;;;;;24.10;47.00;;;;;;1623279;73;710;-69
2022/01/14 01:01:18;;;;;;;;;;;24.20;47.00;;;;;;1625524;73;833;-68
2022/01/14 01:03:20;;;;;;;;;;;24.20;47.10;;;;;;1632825;73;656;-69
2022/01/14 01:05:22;;;;;;;;;;;24.20;47.10;;;;;;1620069;73;1151;-67
2022/01/14 01:07:24;;;;;;;;;;;24.20;47.00;;;;;;1617808;73;1932;-69
2022/01/14 01:09:26;;;;;;;;;;;24.20;47.10;;;;;;1623923;73;796;-69
2022/01/14 01:11:35;;;;;;;;;;;24.20;47.10;;;;;;1618265;73;710;-69
2022/01/14 01:13:37;;;;;;;;;;;24.20;47.10;;;;;;1620823;73;1242;-69
2022/01/14 01:15:38;;;;;;;;;;;24.20;47.10;;;;;;1618862;73;1202;-69
2022/01/14 01:17:40;;;;;;;;;;;24.20;47.00;;;;;;1613662;73;711;-66
2022/01/14 01:19:42;;;;;;;;;;;24.20;47.00;;;;;;1614768;73;646;-68
2022/01/14 01:21:44;;;;;;;;;;;24.20;47.10;;;;;;1612627;73;715;-68
2022/01/14 01:23:45;;;;;;;;;;;24.20;47.00;;;;;;1620627;73;771;-70
2022/01/14 01:25:54;;;;;;;;;;;24.20;47.00;;;;;;1619831;73;1153;-70
2022/01/14 01:27:53;;;;;;;;;;;24.20;47.00;;;;;;1616670;73;1962;-67
2022/01/14 01:30:11;;;;;;;;;;;24.20;47.10;;;;;;1614482;73;1569;-68
2022/01/14 01:31:58;;;;;;;;;;;24.30;47.10;;;;;;1615119;73;1578;-67
2022/01/14 01:34:00;;;;;;;;;;;24.20;46.90;;;;;;1622400;73;741;-67
2022/01/14 01:36:02;;;;;;;;;;;24.20;46.90;;;;;;1619567;73;1171;-67
2022/01/14 01:38:04;;;;;;;;;;;24.10;46.90;;;;;;1614779;73;728;-66
2022/01/14 01:40:06;;;;;;;;;;;24.10;46.90;;;;;;1619789;73;756;-66
2022/01/14 01:42:09;;;;;;;;;;;24.10;46.90;;;;;;1613409;73;738;-67
2022/01/14 01:44:11;;;;;;;;;;;24.10;46.90;;;;;;1614828;73;727;-66
2022/01/14 01:46:13;;;;;;;;;;;24.10;46.90;;;;;;1623429;73;1166;-66
2022/01/14 01:48:14;;;;;;;;;;;24.10;46.90;;;;;;1619181;73;1936;-67
2022/01/14 01:50:18;;;;;;;;;;;24.10;46.90;;;;;;1617562;73;805;-67
2022/01/14 01:52:20;;;;;;;;;;;24.10;46.90;;;;;;1615992;73;1156;-67
2022/01/14 01:54:22;;;;;;;;;;;24.10;46.90;;;;;;1611872;73;824;-67
2022/01/14 01:56:24;;;;;;;;;;;24.10;46.90;;;;;;1614727;73;1169;-65
2022/01/14 01:58:26;;;;;;;;;;;24.10;46.90;;;;;;1614424;73;707;-68
2022/01/14 02:00:28;;;;;;;;;;;24.10;46.90;;;;;;1613678;73;833;-65
2022/01/14 02:02:30;;;;;;;;;;;24.00;46.80;;;;;;1614276;72;813;-65
2022/01/14 02:04:31;;;;;;;;;;;24.00;46.90;;;;;;1626500;73;748;-65
2022/01/14 02:06:33;;;;;;;;;;;24.00;46.80;;;;;;1614517;72;1104;-66
2022/01/14 02:08:35;;;;;;;;;;;24.00;46.80;;;;;;1621047;73;1926;-66
2022/01/14 02:10:38;;;;;;;;;;;24.10;47.00;;;;;;1625086;73;722;-65
2022/01/14 02:12:52;;;;;;;;;;;24.00;46.90;;;;;;1619125;73;588;-64
2022/01/14 02:15:07;;;;;;;;;;;24.00;46.80;;;;;;1610635;73;1597;-66
2022/01/14 02:19:16;;;;;;;;;;;24.00;46.90;;;;;;1618463;73;882;-67
2022/01/14 02:23:39;;;;;;;;;;;24.00;47.00;;;;;;1616435;73;1625;-67
2022/01/14 02:25:39;;;;;;;;;;;23.90;47.00;;;;;;1610030;73;1687;-67
2022/01/14 02:27:41;;;;;;;;;;;24.00;47.00;;;;;;1613247;73;797;-65
2022/01/14 02:29:43;;;;;;;;;;;24.00;47.10;;;;;;1609985;73;1942;-67
2022/01/14 02:31:45;;;;;;;;;;;24.00;47.10;;;;;;1612293;73;679;-67
2022/01/14 02:33:47;;;;;;;;;;;23.90;47.10;;;;;;1608399;73;788;-67
2022/01/14 02:35:49;;;;;;;;;;;24.00;47.00;;;;;;1613473;73;1168;-66
2022/01/14 02:37:51;;;;;;;;;;;24.00;47.00;;;;;;1620781;73;774;-68
2022/01/14 02:39:53;;;;;;;;;;;23.90;47.10;;;;;;1620436;73;810;-68
2022/01/14 02:41:55;;;;;;;;;;;24.00;47.20;;;;;;1588631;75;725;-68
2022/01/14 02:43:58;;;;;;;;;;;24.00;47.20;;;;;;1610200;73;734;-68
2022/01/14 02:46:00;;;;;;;;;;;24.00;47.20;;;;;;1620369;73;1550;-68
2022/01/14 02:48:02;;;;;;;;;;;24.00;47.20;;;;;;1627196;73;1934;-67
2022/01/14 02:50:07;;;;;;;;;;;24.00;47.20;;;;;;1625816;73;734;-68
2022/01/14 02:52:09;;;;;;;;;;;24.00;47.20;;;;;;1615193;73;686;-66
2022/01/14 02:54:19;;;;;;;;;;;24.00;47.30;;;;;;1617266;73;781;-67
2022/01/14 02:56:16;;;;;;;;;;;24.00;47.20;;;;;;1608884;73;1579;-67
2022/01/14 02:58:18;;;;;;;;;;;24.00;47.20;;;;;;1617759;73;771;-68
2022/01/14 03:00:21;;;;;;;;;;;24.00;47.30;;;;;;1618663;73;820;-68
2022/01/14 03:02:23;;;;;;;;;;;24.00;47.20;;;;;;1629240;73;1773;-68
2022/01/14 03:04:25;;;;;;;;;;;24.00;47.30;;;;;;1619833;73;702;-67
2022/01/14 03:06:27;;;;;;;;;;;24.00;47.30;;;;;;1623726;73;1153;-67
2022/01/14 03:08:29;;;;;;;;;;;24.00;47.30;;;;;;1625913;73;1929;-68
2022/01/14 03:10:31;;;;;;;;;;;24.00;47.30;;;;;;1618488;73;760;-66
2022/01/14 03:12:33;;;;;;;;;;;24.00;47.30;;;;;;1618500;73;675;-67
2022/01/14 03:14:35;;;;;;;;;;;24.00;47.30;;;;;;1617962;73;736;-67
2022/01/14 03:16:41;;;;;;;;;;;24.00;47.30;;;;;;1623855;73;1068;-68
2022/01/14 03:18:46;;;;;;;;;;;24.00;47.40;;;;;;1605713;73;655;-68
2022/01/14 03:20:50;;;;;;;;;;;24.00;47.30;;;;;;1631871;73;1689;-69
2022/01/14 03:23:03;;;;;;;;;;;24.00;47.40;;;;;;1626175;73;1576;-67
2022/01/14 03:26:57;;;;;;;;;;;24.10;47.60;;;;;;1616130;73;1104;-68
2022/01/14 03:28:59;;;;;;;;;;;24.00;47.40;;;;;;1619285;73;1916;-68
2022/01/14 03:31:01;;;;;;;;;;;24.00;47.40;;;;;;1625171;73;788;-67
2022/01/14 03:33:03;;;;;;;;;;;24.00;47.30;;;;;;1619306;73;825;-65
2022/01/14 03:35:05;;;;;;;;;;;24.00;47.30;;;;;;1618579;73;1178;-65
2022/01/14 03:37:07;;;;;;;;;;;24.10;47.40;;;;;;1617420;73;749;-65
2022/01/14 03:39:09;;;;;;;;;;;24.10;47.40;;;;;;1616664;73;771;-65
2022/01/14 03:41:11;;;;;;;;;;;24.10;47.30;;;;;;1621328;73;704;-67
2022/01/14 03:43:13;;;;;;;;;;;24.10;47.30;;;;;;1622116;73;690;-68
2022/01/14 03:45:15;;;;;;;;;;;24.10;47.30;;;;;;1620626;73;1135;-68
2022/01/14 03:47:16;;;;;;;;;;;24.10;47.30;;;;;;1611303;73;731;-70
2022/01/14 03:49:18;;;;;;;;;;;24.20;47.30;;;;;;1616543;73;1932;-68
2022/01/14 03:51:21;;;;;;;;;;;24.20;47.20;;;;;;1617810;73;723;-66
2022/01/14 03:53:22;;;;;;;;;;;24.20;47.20;;;;;;1618735;73;800;-66
2022/01/14 03:55:25;;;;;;;;;;;24.20;47.20;;;;;;1615285;73;1127;-66
2022/01/14 03:57:26;;;;;;;;;;;24.20;47.20;;;;;;1618713;73;768;-66
2022/01/14 03:59:28;;;;;;;;;;;24.20;47.10;;;;;;1619940;73;721;-67
2022/01/14 04:01:30;;;;;;;;;;;24.20;47.20;;;;;;1610583;73;691;-65
2022/01/14 04:03:32;;;;;;;;;;;24.20;47.30;;;;;;1610818;73;773;-67
2022/01/14 04:05:34;;;;;;;;;;;24.20;47.30;;;;;;1618959;73;1149;-67
2022/01/14 04:07:36;;;;;;;;;;;24.10;47.20;;;;;;1617401;73;692;-67
2022/01/14 04:09:38;;;;;;;;;;;24.00;47.30;;;;;;1615030;73;1926;-69
2022/01/14 04:11:40;;;;;;;;;;;23.90;47.40;;;;;;1607370;73;782;-68
2022/01/14 04:13:52;;;;;;;;;;;23.90;47.60;;;;;;1615617;73;1012;-68
2022/01/14 04:15:52;;;;;;;;;;;23.90;47.80;;;;;;1614722;73;1156;-67
2022/01/14 04:17:53;;;;;;;;;;;23.80;47.80;;;;;;1621909;73;716;-67
2022/01/14 04:19:55;;;;;;;;;;;23.90;47.80;;;;;;1619448;73;696;-68
2022/01/14 04:21:57;;;;;;;;;;;23.90;47.80;;;;;;1616876;73;834;-68
2022/01/14 04:23:59;;;;;;;;;;;23.90;47.80;;;;;;1621812;73;699;-68
2022/01/14 04:26:01;;;;;;;;;;;23.80;47.80;;;;;;1628561;73;1110;-69
2022/01/14 04:28:03;;;;;;;;;;;23.70;47.90;;;;;;1619900;73;734;-68
2022/01/14 04:30:05;;;;;;;;;;;23.70;48.00;;;;;;1621638;73;1932;-68
2022/01/14 04:32:08;;;;;;;;;;;23.70;48.10;;;;;;1602887;73;712;-69
2022/01/14 04:34:09;;;;;;;;;;;23.60;48.00;;;;;;1606005;74;789;-69
2022/01/14 04:36:11;;;;;;;;;;;23.70;48.20;;;;;;1605652;74;1194;-68
2022/01/14 04:38:13;;;;;;;;;;;23.60;48.10;;;;;;1591854;74;726;-68
2022/01/14 04:40:15;;;;;;;;;;;23.70;48.30;;;;;;1605510;73;718;-67
2022/01/14 04:42:17;;;;;;;;;;;23.60;48.30;;;;;;1605593;74;740;-67
2022/01/14 04:44:19;;;;;;;;;;;23.70;48.40;;;;;;1605722;74;763;-68
2022/01/14 04:46:59;;;;;;;;;;;23.60;48.20;;;;;;1605497;73;1265;-69
2022/01/14 04:48:39;;;;;;;;;;;23.80;48.20;;;;;;1600408;73;1941;-66
2022/01/14 04:50:41;;;;;;;;;;;23.70;48.00;;;;;;1606696;73;753;-66
2022/01/14 04:52:44;;;;;;;;;;;23.80;47.80;;;;;;1606412;73;791;-67
2022/01/14 04:54:46;;;;;;;;;;;23.90;47.90;;;;;;1604104;74;718;-68
2022/01/14 04:56:48;;;;;;;;;;;23.70;47.80;;;;;;1590248;74;1120;-64
2022/01/14 04:58:50;;;;;;;;;;;23.80;47.90;;;;;;1605565;73;759;-66
2022/01/14 05:00:52;;;;;;;;;;;23.70;47.90;;;;;;1606506;74;717;-66
2022/01/14 05:02:55;;;;;;;;;;;23.70;47.90;;;;;;1605167;74;766;-66
2022/01/14 05:04:59;;;;;;;;;;;23.80;47.90;;;;;;1606184;73;736;-64
2022/01/14 05:07:03;;;;;;;;;;;23.80;47.90;;;;;;1606164;73;1112;-66
2022/01/14 05:09:16;;;;;;;;;;;23.80;47.80;;;;;;1604239;74;1920;-67
2022/01/14 05:11:24;;;;;;;;;;;23.80;47.90;;;;;;1603664;74;1603;-67
2022/01/14 05:13:24;;;;;;;;;;;23.90;47.80;;;;;;1605291;74;1686;-66
2022/01/14 05:15:25;;;;;;;;;;;23.80;47.80;;;;;;1605599;73;1104;-67
2022/01/14 05:17:27;;;;;;;;;;;23.70;47.90;;;;;;1606141;74;746;-66
2022/01/14 05:19:29;;;;;;;;;;;23.90;47.80;;;;;;1604656;74;789;-67
2022/01/14 05:21:31;;;;;;;;;;;24.00;47.40;;;;;;1606335;74;698;-67
2022/01/14 05:23:33;;;;;;;;;;;24.00;47.20;;;;;;1606732;74;798;-67
2022/01/14 05:25:35;;;;;;;;;;;24.10;47.00;;;;;;1605933;74;1239;-68
2022/01/14 05:27:37;;;;;;;;;;;24.10;46.90;;;;;;1605133;74;804;-66
2022/01/14 05:29:39;;;;;;;;;;;24.20;46.80;;;;;;1606304;74;1926;-66
2022/01/14 05:31:42;;;;;;;;;;;24.20;46.70;;;;;;1606255;73;709;-67
2022/01/14 05:33:46;;;;;;;;;;;24.20;46.60;;;;;;1592048;74;1055;-67
2022/01/14 05:35:48;;;;;;;;;;;24.30;46.70;;;;;;1605511;73;1662;-67
2022/01/14 05:37:50;;;;;;;;;;;24.20;46.50;;;;;;1605525;74;730;-68
2022/01/14 05:39:52;;;;;;;;;;;24.20;46.80;;;;;;1606565;74;741;-67
2022/01/14 05:41:55;;;;;;;;;;;24.00;47.00;;;;;;1605686;74;784;-69
2022/01/14 05:43:57;;;;;;;;;;;24.00;47.20;;;;;;1605492;74;739;-71
2022/01/14 05:45:59;;;;;;;;;;;24.10;47.30;;;;;;1578169;74;1118;-69
2022/01/14 05:48:00;;;;;;;;;;;24.20;47.00;;;;;;1625257;73;946;-70
2022/01/14 05:50:03;;;;;;;;;;;24.20;46.70;;;;;;1618982;73;1936;-71
2022/01/14 05:52:05;;;;;;;;;;;24.30;46.70;;;;;;1626725;73;711;-69
2022/01/14 05:54:07;;;;;;;;;;;24.30;46.60;;;;;;1599284;73;696;-67
2022/01/14 05:56:09;;;;;;;;;;;24.20;46.50;;;;;;1614616;73;1042;-69
2022/01/14 05:58:11;;;;;;;;;;;24.20;46.80;;;;;;1606112;73;733;-70
2022/01/14 06:00:15;;;;;;;;;;;24.30;46.80;;;;;;1609651;73;731;-70
2022/01/14 06:02:17;;;;;;;;;;;24.40;46.50;;;;;;1618217;73;1457;-67
2022/01/14 06:04:19;;;;;;;;;;;24.40;46.50;;;;;;1617148;73;797;-68
2022/01/14 06:06:21;;;;;;;;;;;24.30;46.50;;;;;;1611705;73;1129;-69
2022/01/14 06:08:23;;;;;;;;;;;24.40;46.50;;;;;;1619217;73;787;-69
2022/01/14 06:10:25;;;;;;;;;;;24.40;46.50;;;;;;1620503;73;1911;-69
2022/01/14 06:12:27;;;;;;;;;;;24.30;46.50;;;;;;1619275;73;789;-67
2022/01/14 06:14:28;;;;;;;;;;;24.40;46.50;;;;;;1618088;73;707;-66
2022/01/14 06:16:30;;;;;;;;;;;24.30;46.60;;;;;;1619631;73;1150;-69
2022/01/14 06:18:32;;;;;;;;;;;24.20;46.50;;;;;;1614673;73;725;-69
2022/01/14 06:20:34;;;;;;;;;;;24.20;46.50;;;;;;1618401;73;781;-67
2022/01/14 06:22:36;;;;;;;;;;;24.30;46.70;;;;;;1627087;73;685;-68
2022/01/14 06:24:38;;;;;;;;;;;24.30;46.60;;;;;;1609390;73;810;-69
2022/01/14 06:26:40;;;;;;;;;;;24.30;46.60;;;;;;1614618;73;1171;-65
2022/01/14 06:28:43;;;;;;;;;;;24.20;46.60;;;;;;1631960;73;707;-69
2022/01/14 06:30:45;;;;;;;;;;;24.10;46.80;;;;;;1618844;73;1980;-70
2022/01/14 06:32:47;;;;;;;;;;;24.10;47.00;;;;;;1614035;73;668;-67
2022/01/14 06:34:49;;;;;;;;;;;24.20;47.00;;;;;;1620531;73;726;-70
2022/01/14 06:36:51;;;;;;;;;;;24.30;47.00;;;;;;1618885;73;1127;-71
2022/01/14 06:38:52;;;;;;;;;;;24.30;46.80;;;;;;1624951;73;677;-71
2022/01/14 06:40:54;;;;;;;;;;;24.30;46.80;;;;;;1617136;73;700;-71
2022/01/14 06:42:56;;;;;;;;;;;24.30;46.70;;;;;;1621082;73;730;-71
2022/01/14 06:44:58;;;;;;;;;;;24.40;46.70;;;;;;1618789;73;643;-72
2022/01/14 06:47:00;;;;;;;;;;;24.30;46.60;;;;;;1618432;73;1091;-79
2022/01/14 06:49:02;;;;;;;;;;;24.30;46.60;;;;;;1615318;73;766;-70
2022/01/14 06:51:04;;;;;;;;;;;24.30;45.80;;;;;;1620406;73;1935;-69
2022/01/14 06:53:06;;;;;;;;;;;24.20;45.80;;;;;;1619439;73;737;-69
2022/01/14 06:55:08;;;;;;;;;;;24.20;46.00;;;;;;1615168;73;1154;-70
2022/01/14 06:57:10;;;;;;;;;;;24.20;45.90;;;;;;1618195;73;734;-70
2022/01/14 06:59:12;;;;;;;;;;;24.20;45.90;;;;;;1618714;73;700;-70
2022/01/14 07:01:13;;;;;;;;;;;24.20;45.90;;;;;;1620570;73;763;-70
2022/01/14 07:03:15;;;;;;;;;;;24.20;45.80;;;;;;1619791;73;684;-71
2022/01/14 07:05:17;;;;;;;;;;;24.20;45.80;;;;;;1621604;73;1163;-71
2022/01/14 07:07:19;;;;;;;;;;;24.20;45.80;;;;;;1619358;73;712;-70
2022/01/14 07:09:21;;;;;;;;;;;24.20;45.80;;;;;;1613416;73;733;-69
2022/01/14 07:11:30;;;;;;;;;;;24.20;45.80;;;;;;1621958;73;1949;-69
2022/01/14 07:13:29;;;;;;;;;;;24.10;45.80;;;;;;1619172;73;1456;-69
2022/01/14 07:15:31;;;;;;;;;;;24.10;45.80;;;;;;1615373;73;1100;-68
2022/01/14 07:17:33;;;;;;;;;;;24.20;45.80;;;;;;1617395;73;726;-73
2022/01/14 07:19:35;;;;;;;;;;;24.10;45.70;;;;;;1621534;73;709;-67
2022/01/14 07:21:38;;;;;;;;;;;24.10;44.80;;;;;;1617658;73;755;-67
2022/01/14 07:23:40;;;;;;;;;;;24.10;45.00;;;;;;1621821;73;773;-65
2022/01/14 07:25:42;;;;;;;;;;;24.10;45.10;;;;;;1619278;73;1173;-66
2022/01/14 07:27:44;;;;;;;;;;;24.10;45.10;;;;;;1618032;73;704;-69
2022/01/14 07:29:46;;;;;;;;;;;24.10;45.20;;;;;;1619688;73;1934;-75
2022/01/14 07:31:48;;;;;;;;;;;24.10;45.30;;;;;;1618576;73;695;-69
2022/01/14 07:33:50;;;;;;;;;;;24.10;45.60;;;;;;1617109;73;761;-67
2022/01/14 07:35:51;;;;;;;;;;;24.10;45.50;;;;;;1618770;73;1165;-70
2022/01/14 07:37:53;;;;;;;;;;;24.10;45.60;;;;;;1620445;73;748;-68
2022/01/14 07:39:55;;;;;;;;;;;24.00;45.40;;;;;;1621385;73;704;-70
2022/01/14 07:41:57;;;;;;;;;;;24.10;45.50;;;;;;1619823;73;797;-70
2022/01/14 07:43:59;;;;;;;;;;;24.00;45.50;;;;;;1619965;73;709;-69
2022/01/14 07:46:01;;;;;;;;;;;24.00;45.50;;;;;;1615440;73;1166;-68
2022/01/14 07:48:03;;;;;;;;;;;24.00;45.50;;;;;;1619986;73;773;-68
2022/01/14 07:50:05;;;;;;;;;;;24.00;45.50;;;;;;1611853;73;1927;-68
2022/01/14 07:52:07;;;;;;;;;;;24.00;45.30;;;;;;1621898;73;708;-71
2022/01/14 07:54:09;;;;;;;;;;;24.10;45.40;;;;;;1612849;73;1001;-71
2022/01/14 07:56:13;;;;;;;;;;;24.20;45.20;;;;;;1621672;73;1158;-68
2022/01/14 07:58:14;;;;;;;;;;;24.20;45.20;;;;;;1614321;73;1619;-69
2022/01/14 08:00:16;;;;;;;;;;;24.20;45.20;;;;;;1620099;73;724;-69
2022/01/14 08:02:20;;;;;;;;;;;24.20;44.40;;;;;;1619221;73;803;-71
2022/01/14 08:04:22;;;;;;;;;;;24.20;43.20;;;;;;1618592;73;663;-73
2022/01/14 08:06:24;;;;;;;;;;;24.10;42.20;;;;;;1619891;73;1155;-72
2022/01/14 08:08:28;;;;;;;;;;;24.10;42.20;;;;;;1617823;73;746;-69
2022/01/14 08:10:30;;;;;;;;;;;23.90;41.90;;;;;;1619490;73;1904;-72
2022/01/14 08:12:32;;;;;;;;;;;23.80;41.10;;;;;;1618954;73;719;-69
2022/01/14 08:14:34;;;;;;;;;;;23.70;40.00;;;;;;1618599;73;694;-71
2022/01/14 08:16:36;;;;;;;;;;;23.70;39.00;;;;;;1618701;73;1147;-71
2022/01/14 08:18:38;;;;;;;;;;;23.50;40.00;;;;;;1617749;73;686;-74
2022/01/14 08:20:40;;;;;;;;;;;23.40;39.30;;;;;;1618557;73;729;-74
2022/01/14 08:22:42;;;;;;;;;;;23.50;39.90;;;;;;1616694;73;746;-76
2022/01/14 08:24:43;;;;;;;;;;;23.40;40.10;;;;;;1593001;74;727;-72
2022/01/14 08:26:45;;;;;;;;;;;23.40;39.90;;;;;;1605134;74;1049;-70
2022/01/14 08:28:47;;;;;;;;;;;23.30;39.80;;;;;;1618092;73;778;-70
2022/01/14 08:30:49;;;;;;;;;;;23.30;39.80;;;;;;1615380;73;1922;-72
2022/01/14 08:32:51;;;;;;;;;;;23.20;39.90;;;;;;1626437;73;727;-72
2022/01/14 08:34:53;;;;;;;;;;;23.10;40.10;;;;;;1606483;73;712;-72
2022/01/14 08:36:55;;;;;;;;;;;23.20;40.30;;;;;;1619030;73;1084;-71
2022/01/14 08:38:56;;;;;;;;;;;23.10;40.30;;;;;;1621353;73;784;-72
2022/01/14 08:40:58;;;;;;;;;;;23.10;40.30;;;;;;1619431;73;757;-71
2022/01/14 08:43:00;;;;;;;;;;;23.10;40.30;;;;;;1622986;73;708;-68
2022/01/14 08:45:03;;;;;;;;;;;23.10;40.60;;;;;;1618674;73;755;-68
2022/01/14 08:47:09;;;;;;;;;;;23.10;40.90;;;;;;1626806;73;1076;-67
2022/01/14 08:49:09;;;;;;;;;;;23.10;40.80;;;;;;1620190;73;1572;-68
2022/01/14 08:51:10;;;;;;;;;;;23.10;41.10;;;;;;1617408;73;1935;-68
2022/01/14 08:53:13;;;;;;;;;;;23.10;41.40;;;;;;1622326;73;697;-68
2022/01/14 08:55:16;;;;;;;;;;;23.10;41.80;;;;;;1617497;73;1136;-68
2022/01/14 08:57:18;;;;;;;;;;;23.20;42.00;;;;;;1610534;73;714;-67
2022/01/14 08:59:20;;;;;;;;;;;23.20;42.20;;;;;;1619427;73;755;-67
2022/01/14 09:01:22;;;;;;;;;;;23.20;42.40;;;;;;1618319;73;740;-72
2022/01/14 09:03:24;;;;;;;;;;;23.10;42.60;;;;;;1619421;73;703;-68
2022/01/14 09:05:26;;;;;;;;;;;23.10;42.70;;;;;;1618314;73;1106;-68
2022/01/14 09:07:28;;;;;;;;;;;23.20;42.90;;;;;;1619510;73;790;-68
2022/01/14 09:09:30;;;;;;;;;;;23.20;43.00;;;;;;1618115;73;757;-68
2022/01/14 09:11:32;;;;;;;;;;;23.20;43.10;;;;;;1620860;73;1956;-69
2022/01/14 09:13:34;;;;;;;;;;;23.20;43.30;;;;;;1617891;72;760;-68
2022/01/14 09:15:36;;;;;;;;;;;23.30;43.40;;;;;;1618034;73;1165;-68
2022/01/14 09:17:38;;;;;;;;;;;23.20;43.40;;;;;;1620169;73;723;-68
2022/01/14 09:19:40;;;;;;;;;;;23.30;43.60;;;;;;1615938;73;809;-68
2022/01/14 09:21:44;;;;;;;;;;;23.30;43.60;;;;;;1609443;73;779;-68
2022/01/14 09:23:52;;;;;;;;;;;23.40;43.80;;;;;;1619670;73;1589;-70
2022/01/14 09:25:50;;;;;;;;;;;23.40;43.80;;;;;;1608871;72;1484;-67
2022/01/14 09:27:52;;;;;;;;;;;23.50;43.90;;;;;;1618157;73;775;-72
2022/01/14 09:29:54;;;;;;;;;;;23.40;43.90;;;;;;1618827;73;762;-70
2022/01/14 09:31:56;;;;;;;;;;;23.50;44.00;;;;;;1624464;73;1925;-71
2022/01/14 09:33:58;;;;;;;;;;;23.50;44.00;;;;;;1620202;73;1049;-67
2022/01/14 09:36:00;;;;;;;;;;;23.50;44.00;;;;;;1626252;73;1095;-68
2022/01/14 09:38:02;;;;;;;;;;;23.50;44.00;;;;;;1618178;73;764;-68
2022/01/14 09:40:04;;;;;;;;;;;23.60;44.00;;;;;;1621646;73;778;-69
2022/01/14 09:42:07;;;;;;;;;;;23.50;44.10;;;;;;1614485;73;711;-68
2022/01/14 09:44:09;;;;;;;;;;;23.60;44.00;;;;;;1620191;73;724;-67
2022/01/14 09:46:11;;;;;;;;;;;23.60;44.00;;;;;;1623582;73;1169;-67
2022/01/14 09:48:15;;;;;;;;;;;23.70;44.20;;;;;;1619208;73;841;-70
2022/01/14 09:50:18;;;;;;;;;;;23.60;44.10;;;;;;1619960;73;743;-70
2022/01/14 09:52:20;;;;;;;;;;;23.70;44.20;;;;;;1614587;73;1924;-70
2022/01/14 09:54:21;;;;;;;;;;;23.70;44.20;;;;;;1612974;73;740;-67
2022/01/14 09:56:23;;;;;;;;;;;23.70;44.20;;;;;;1619404;73;1193;-67
2022/01/14 09:58:29;;;;;;;;;;;23.80;44.20;;;;;;1616094;73;784;-66
2022/01/14 10:00:30;;;;;;;;;;;23.70;44.10;;;;;;1619977;73;1809;-68
2022/01/14 10:02:37;;;;;;;;;;;23.70;44.20;;;;;;1608534;73;767;-71
2022/01/14 10:04:40;;;;;;;;;;;23.80;44.10;;;;;;1611837;73;750;-69
2022/01/14 10:06:45;;;;;;;;;;;23.90;44.30;;;;;;1615332;73;1129;-68
2022/01/14 10:08:47;;;;;;;;;;;23.80;44.20;;;;;;1618919;73;689;-69
2022/01/14 10:10:51;;;;;;;;;;;23.80;44.20;;;;;;1619855;73;1913;-70
2022/01/14 10:12:53;;;;;;;;;;;23.90;44.30;;;;;;1624091;73;1124;-68
2022/01/14 10:14:55;;;;;;;;;;;23.80;44.10;;;;;;1627470;73;715;-68
2022/01/14 10:16:58;;;;;;;;;;;23.90;44.20;;;;;;1617006;73;1093;-69
2022/01/14 10:19:00;;;;;;;;;;;23.90;44.20;;;;;;1618896;73;795;-69
2022/01/14 10:21:02;;;;;;;;;;;23.80;44.10;;;;;;1612595;73;688;-70
2022/01/14 10:23:04;;;;;;;;;;;23.90;44.20;;;;;;1625352;73;719;-68
2022/01/14 10:25:07;;;;;;;;;;;23.90;44.20;;;;;;1610235;73;820;-73
2022/01/14 10:27:09;;;;;;;;;;;23.90;44.20;;;;;;1613588;73;690;-67
2022/01/14 10:29:11;;;;;;;;;;;24.00;44.10;;;;;;1617635;73;750;-68
2022/01/14 10:31:13;;;;;;;;;;;24.00;44.20;;;;;;1622108;73;1943;-69
2022/01/14 10:33:15;;;;;;;;;;;23.90;44.20;;;;;;1615997;73;770;-69
2022/01/14 10:35:18;;;;;;;;;;;24.00;44.20;;;;;;1590636;75;1196;-70
2022/01/14 10:37:19;;;;;;;;;;;24.00;44.20;;;;;;1617624;73;739;-69
2022/01/14 10:39:25;;;;;;;;;;;24.00;44.20;;;;;;1619517;73;750;-69
2022/01/14 10:41:31;;;;;;;;;;;24.00;44.20;;;;;;1619841;73;775;-69
2022/01/14 10:43:35;;;;;;;;;;;24.00;44.20;;;;;;1616722;73;721;-69
2022/01/14 10:45:37;;;;;;;;;;;24.00;44.20;;;;;;1618523;73;1107;-68
2022/01/14 10:47:39;;;;;;;;;;;24.00;44.20;;;;;;1610233;73;744;-68
2022/01/14 10:49:42;;;;;;;;;;;24.00;44.20;;;;;;1611269;73;697;-69
2022/01/14 10:51:44;;;;;;;;;;;24.00;44.20;;;;;;1617018;73;1908;-69
2022/01/14 10:53:51;;;;;;;;;;;24.00;44.10;;;;;;1618115;73;836;-68
2022/01/14 10:55:54;;;;;;;;;;;24.10;44.30;;;;;;1611479;73;1539;-68
2022/01/14 10:57:57;;;;;;;;;;;24.10;44.30;;;;;;1625179;73;794;-72
2022/01/14 11:00:00;;;;;;;;;;;24.10;44.20;;;;;;1621679;73;838;-69
2022/01/14 11:02:02;;;;;;;;;;;24.10;44.30;;;;;;1610094;73;1473;-70
2022/01/14 11:04:10;;;;;;;;;;;24.10;44.30;;;;;;1621690;72;770;-74
2022/01/14 11:06:22;;;;;;;;;;;24.10;44.30;;;;;;1615538;73;1164;-70
2022/01/14 11:08:25;;;;;;;;;;;24.10;44.30;;;;;;1617994;73;826;-67
2022/01/14 11:10:28;;;;;;;;;;;24.10;44.10;;;;;;1620127;73;1947;-68
2022/01/14 11:12:30;;;;;;;;;;;24.20;43.90;;;;;;1619170;73;1898;-70
2022/01/14 11:14:32;;;;;;;;;;;24.20;43.70;;;;;;1622959;73;688;-70
2022/01/14 11:16:34;;;;;;;;;;;24.30;43.90;;;;;;1616567;73;1147;-74
2022/01/14 11:18:37;;;;;;;;;;;24.30;43.90;;;;;;1613333;73;731;-70
2022/01/14 11:25:02;;;;;;;;;;;24.30;43.70;;;;;;1607965;73;1659;-74
2022/01/14 11:27:05;;;;;;;;;;;24.20;43.60;;;;;;1620155;73;1178;-73
2022/01/14 11:29:13;;;;;;;;;;;24.20;43.70;;;;;;1619452;73;734;-69
2022/01/14 11:31:26;;;;;;;;;;;24.20;43.90;;;;;;1618964;73;1927;-70
2022/01/14 11:33:41;;;;;;;;;;;24.20;43.90;;;;;;1619536;73;585;-76
2022/01/14 11:35:44;;;;;;;;;;;24.20;43.90;;;;;;1607716;73;1136;-70
2022/01/14 11:37:46;;;;;;;;;;;24.20;43.90;;;;;;1617487;72;1442;-76
2022/01/14 11:39:55;;;;;;;;;;;24.20;44.00;;;;;;1618724;73;727;-68
2022/01/14 11:42:00;;;;;;;;;;;24.20;44.10;;;;;;1613740;73;828;-72
2022/01/14 11:44:07;;;;;;;;;;;24.20;44.10;;;;;;1615129;73;759;-70
2022/01/14 11:46:06;;;;;;;;;;;24.20;44.20;;;;;;1615947;73;1554;-69
2022/01/14 11:48:08;;;;;;;;;;;24.20;44.20;;;;;;1616050;73;780;-70
2022/01/14 11:50:23;;;;;;;;;;;24.10;44.20;;;;;;1619254;73;664;-69
2022/01/14 11:52:43;;;;;;;;;;;24.10;44.30;;;;;;1611479;73;1909;-72
2022/01/14 11:54:46;;;;;;;;;;;24.10;44.30;;;;;;1607308;73;680;-71
2022/01/14 11:56:48;;;;;;;;;;;24.10;44.40;;;;;;1619595;73;1202;-70
2022/01/14 11:58:50;;;;;;;;;;;24.20;44.40;;;;;;1618713;73;724;-74
2022/01/14 12:00:51;;;;;;;;;;;24.10;44.40;;;;;;1619428;73;768;-70
2022/01/14 12:02:54;;;;;;;;;;;24.10;44.50;;;;;;1618185;73;726;-70
2022/01/14 12:05:06;;;;;;;;;;;24.20;44.60;;;;;;1621586;73;730;-73
2022/01/14 12:07:08;;;;;;;;;;;24.10;44.70;;;;;;1618002;73;739;-69
2022/01/14 12:09:09;;;;;;;;;;;24.00;44.60;;;;;;1620324;73;778;-70
2022/01/14 12:11:14;;;;;;;;;;;24.10;45.00;;;;;;1619248;73;716;-69
2022/01/14 12:13:38;;;;;;;;;;;24.10;45.00;;;;;;1618048;73;763;-69
2022/01/14 12:15:57;;;;;;;;;;;24.00;45.00;;;;;;1616085;73;1640;-70
2022/01/14 12:17:52;;;;;;;;;;;24.00;45.20;;;;;;1612287;73;1627;-70
2022/01/14 12:19:54;;;;;;;;;;;24.00;45.30;;;;;;1626933;73;704;-70
2022/01/14 12:21:56;;;;;;;;;;;24.00;45.50;;;;;;1619300;73;790;-69
2022/01/14 12:23:59;;;;;;;;;;;24.00;45.50;;;;;;1613631;73;784;-71
2022/01/14 12:26:17;;;;;;;;;;;24.00;45.60;;;;;;1622288;73;1138;-74
2022/01/14 12:28:20;;;;;;;;;;;24.00;45.70;;;;;;1625399;72;720;-73
2022/01/14 12:30:22;;;;;;;;;;;24.00;45.70;;;;;;1611695;73;718;-73
2022/01/14 12:32:32;;;;;;;;;;;24.00;45.70;;;;;;1619894;73;1922;-71